Hauptseite
METAR-TAF:

METAR-TAF

Flughäfen :

São Gabriel da Cachoeira, Amazonas, Brasilien

Breite: 00-08S, Länge: 067-05W, Höhe: 90 m

Beobachtung

Neuester Wetterbericht von vor 15 Stunden und 40 Minuten, um 19:00 UTC
Wind 4 kt aus Nord
Temperatur 27°C
Luftfeuchtigkeit 84%
Luftdruck 1013 hPa
Sichtweite 10 km oder mehr
Durchbrochene Bewölkung in der Höhe von 1800 ft
Durchbrochene Bewölkung in der Höhe von 2600 ft

METAR: SBUA 211900Z 35004KT 9999 BKN018 BKN026 27/24 Q1013

Zeit: 06:40 (10:40 UTC)


TAF: fehlend

Wetterbeobachtungen und Prognosen von mehr als 4000 Flughäfen (METAR und TAF Bericht).

Die verfügbaren Stationen werden durch gelbe und rote Markierungen auf der Karte dargestellt.

Führen Sie die Maus auf sie, um den Namen der Station zu sehen.

Darauf klicken, um die Beobachtung von Wetterbeobachtungen und Prognosen zu sehen.

Um die Karte zu ändern : klicken Sie auf den grünen Tasten mit einem schwarzen Kreuz Zum Vergrößern, auf den grünen Button mit einem Gedankenstrich zu verkleinern, oder auf die grünen Pfeile für benachbarte Karten.


METAR-TAF: